sensor_id;sensor_type;location;lat;lon;timestamp;pressure;altitude;pressure_sealevel;temperature;humidity
13241;BME280;6687;47.790;7.322;2023-07-31T05:24:43;99047.66;;;19.58;55.87
13241;BME280;6687;47.790;7.322;2023-07-31T05:27:10;99055.00;;;19.75;55.38
13241;BME280;6687;47.790;7.322;2023-07-31T05:29:38;99060.69;;;19.88;54.79
13241;BME280;6687;47.790;7.322;2023-07-31T05:32:05;99070.38;;;19.88;55.17
13241;BME280;6687;47.790;7.322;2023-07-31T05:34:32;99063.91;;;19.96;54.66
13241;BME280;6687;47.790;7.322;2023-07-31T05:36:59;99064.59;;;20.01;54.67
13241;BME280;6687;47.790;7.322;2023-07-31T05:39:26;99055.59;;;20.09;54.33
13241;BME280;6687;47.790;7.322;2023-07-31T05:41:54;99058.84;;;20.15;54.28
13241;BME280;6687;47.790;7.322;2023-07-31T05:44:20;99063.97;;;20.20;53.76
13241;BME280;6687;47.790;7.322;2023-07-31T05:46:47;99064.56;;;20.28;53.74
13241;BME280;6687;47.790;7.322;2023-07-31T05:49:14;99069.25;;;20.43;53.02
13241;BME280;6687;47.790;7.322;2023-07-31T05:51:40;99074.00;;;20.34;53.54
13241;BME280;6687;47.790;7.322;2023-07-31T05:54:07;99066.16;;;20.56;52.95
13241;BME280;6687;47.790;7.322;2023-07-31T05:56:34;99063.94;;;20.69;52.14
13241;BME280;6687;47.790;7.322;2023-07-31T05:59:02;99047.06;;;20.74;52.22
13241;BME280;6687;47.790;7.322;2023-07-31T06:01:28;99050.41;;;20.79;52.31
13241;BME280;6687;47.790;7.322;2023-07-31T06:03:55;99050.72;;;20.94;52.02
13241;BME280;6687;47.790;7.322;2023-07-31T06:06:22;99037.41;;;20.97;51.47
13241;BME280;6687;47.790;7.322;2023-07-31T06:08:48;99038.53;;;21.13;51.17
13241;BME280;6687;47.790;7.322;2023-07-31T06:11:16;99030.19;;;21.24;50.86
13241;BME280;6687;47.790;7.322;2023-07-31T06:13:42;99033.50;;;21.29;50.73
13241;BME280;6687;47.790;7.322;2023-07-31T06:16:11;99019.28;;;21.33;50.63
13241;BME280;6687;47.790;7.322;2023-07-31T06:18:38;99011.16;;;21.38;50.47
13241;BME280;6687;47.790;7.322;2023-07-31T06:21:04;99009.09;;;21.46;50.12
13241;BME280;6687;47.790;7.322;2023-07-31T06:23:31;99015.69;;;21.34;50.56
13241;BME280;6687;47.790;7.322;2023-07-31T06:25:58;99018.03;;;21.42;50.39
13241;BME280;6687;47.790;7.322;2023-07-31T06:28:27;99015.16;;;21.48;50.16
13241;BME280;6687;47.790;7.322;2023-07-31T06:30:54;99018.31;;;21.56;50.02
13241;BME280;6687;47.790;7.322;2023-07-31T06:33:22;99020.69;;;21.62;49.78
13241;BME280;6687;47.790;7.322;2023-07-31T06:35:49;99030.59;;;21.57;49.48
13241;BME280;6687;47.790;7.322;2023-07-31T06:38:18;99034.19;;;21.77;49.31
13241;BME280;6687;47.790;7.322;2023-07-31T06:40:45;99044.06;;;21.92;49.21
13241;BME280;6687;47.790;7.322;2023-07-31T06:43:11;99034.84;;;22.02;48.68
13241;BME280;6687;47.790;7.322;2023-07-31T06:45:38;99047.09;;;22.24;48.22
13241;BME280;6687;47.790;7.322;2023-07-31T06:48:05;99049.91;;;22.19;48.15
13241;BME280;6687;47.790;7.322;2023-07-31T06:50:33;99052.34;;;22.44;47.59
13241;BME280;6687;47.790;7.322;2023-07-31T06:52:59;99051.00;;;22.55;47.54
13241;BME280;6687;47.790;7.322;2023-07-31T06:55:26;99056.28;;;22.55;47.42
13241;BME280;6687;47.790;7.322;2023-07-31T06:57:55;99047.50;;;22.54;47.57
13241;BME280;6687;47.790;7.322;2023-07-31T07:00:22;99052.06;;;22.70;47.31
13241;BME280;6687;47.790;7.322;2023-07-31T07:02:50;99045.16;;;22.67;47.00
13241;BME280;6687;47.790;7.322;2023-07-31T07:05:17;99040.38;;;22.75;47.02
13241;BME280;6687;47.790;7.322;2023-07-31T07:07:45;99035.88;;;22.77;46.98
13241;BME280;6687;47.790;7.322;2023-07-31T07:10:12;99037.09;;;22.70;47.08
13241;BME280;6687;47.790;7.322;2023-07-31T07:12:39;99032.31;;;22.78;46.66
13241;BME280;6687;47.790;7.322;2023-07-31T07:15:06;99026.94;;;22.80;46.89
13241;BME280;6687;47.790;7.322;2023-07-31T07:17:33;99024.81;;;22.69;47.12
13241;BME280;6687;47.790;7.322;2023-07-31T07:20:00;99024.56;;;22.93;46.81
13241;BME280;6687;47.790;7.322;2023-07-31T07:22:28;99004.94;;;22.79;46.83
13241;BME280;6687;47.790;7.322;2023-07-31T07:24:57;99006.81;;;22.77;46.98
13241;BME280;6687;47.790;7.322;2023-07-31T07:27:23;98997.38;;;22.91;46.63
13241;BME280;6687;47.790;7.322;2023-07-31T07:29:51;98989.81;;;23.02;46.33
13241;BME280;6687;47.790;7.322;2023-07-31T07:32:18;98992.16;;;23.08;46.53
13241;BME280;6687;47.790;7.322;2023-07-31T07:34:47;98996.50;;;23.09;46.59
13241;BME280;6687;47.790;7.322;2023-07-31T07:37:14;98997.59;;;23.05;46.63
13241;BME280;6687;47.790;7.322;2023-07-31T07:39:41;99003.22;;;23.16;46.51
13241;BME280;6687;47.790;7.322;2023-07-31T07:42:09;99000.88;;;23.28;45.87
13241;BME280;6687;47.790;7.322;2023-07-31T07:44:36;99000.03;;;23.27;45.91
13241;BME280;6687;47.790;7.322;2023-07-31T07:47:03;98998.25;;;23.45;45.55
13241;BME280;6687;47.790;7.322;2023-07-31T07:49:31;99008.38;;;23.54;45.46
13241;BME280;6687;47.790;7.322;2023-07-31T07:51:58;99013.81;;;23.51;45.55
13241;BME280;6687;47.790;7.322;2023-07-31T07:54:24;99014.44;;;23.74;44.81
13241;BME280;6687;47.790;7.322;2023-07-31T07:56:51;99015.53;;;23.52;45.45
13241;BME280;6687;47.790;7.322;2023-07-31T07:59:19;99017.72;;;23.79;44.89
13241;BME280;6687;47.790;7.322;2023-07-31T08:01:46;99024.00;;;23.59;45.07
13241;BME280;6687;47.790;7.322;2023-07-31T08:04:13;99017.22;;;23.53;45.40
13241;BME280;6687;47.790;7.322;2023-07-31T08:06:39;99017.09;;;23.91;44.85
13241;BME280;6687;47.790;7.322;2023-07-31T08:09:06;99019.56;;;23.59;44.93
13241;BME280;6687;47.790;7.322;2023-07-31T08:11:34;99019.91;;;23.88;44.41
13241;BME280;6687;47.790;7.322;2023-07-31T08:14:01;99010.78;;;23.94;44.69
13241;BME280;6687;47.790;7.322;2023-07-31T08:16:29;99005.56;;;23.75;44.67
13241;BME280;6687;47.790;7.322;2023-07-31T08:18:56;99008.53;;;23.86;44.72
13241;BME280;6687;47.790;7.322;2023-07-31T08:21:22;99003.38;;;24.00;44.21
13241;BME280;6687;47.790;7.322;2023-07-31T08:23:49;98997.88;;;24.21;43.97
13241;BME280;6687;47.790;7.322;2023-07-31T08:26:16;99003.94;;;24.23;43.49
13241;BME280;6687;47.790;7.322;2023-07-31T08:28:43;98989.34;;;24.16;43.67
13241;BME280;6687;47.790;7.322;2023-07-31T08:31:10;98998.91;;;24.52;43.56
13241;BME280;6687;47.790;7.322;2023-07-31T08:33:38;98996.25;;;24.52;43.36
13241;BME280;6687;47.790;7.322;2023-07-31T08:36:05;98987.00;;;24.59;43.23
13241;BME280;6687;47.790;7.322;2023-07-31T08:38:32;98993.34;;;24.72;42.97
13241;BME280;6687;47.790;7.322;2023-07-31T08:40:59;98982.59;;;24.59;43.08
13241;BME280;6687;47.790;7.322;2023-07-31T08:43:26;98982.16;;;24.67;42.38
13241;BME280;6687;47.790;7.322;2023-07-31T08:45:54;98982.31;;;24.96;42.19
13241;BME280;6687;47.790;7.322;2023-07-31T08:48:22;98983.00;;;24.99;42.36
13241;BME280;6687;47.790;7.322;2023-07-31T08:50:51;98972.81;;;24.92;42.08
13241;BME280;6687;47.790;7.322;2023-07-31T08:53:18;98980.13;;;25.18;41.99
13241;BME280;6687;47.790;7.322;2023-07-31T08:55:46;98972.88;;;25.06;42.25
13241;BME280;6687;47.790;7.322;2023-07-31T08:58:13;98962.69;;;25.14;41.97
13241;BME280;6687;47.790;7.322;2023-07-31T09:00:41;98962.63;;;25.00;42.12
13241;BME280;6687;47.790;7.322;2023-07-31T09:03:14;98964.09;;;25.06;42.45
13241;BME280;6687;47.790;7.322;2023-07-31T09:05:43;98949.59;;;24.65;43.20
13241;BME280;6687;47.790;7.322;2023-07-31T09:08:13;98954.88;;;24.97;42.19
13241;BME280;6687;47.790;7.322;2023-07-31T09:10:43;98945.81;;;24.37;41.98
13241;BME280;6687;47.790;7.322;2023-07-31T09:13:12;98948.31;;;25.18;41.61
13241;BME280;6687;47.790;7.322;2023-07-31T09:15:39;98950.56;;;25.10;41.65
13241;BME280;6687;47.790;7.322;2023-07-31T09:18:07;98957.38;;;25.14;41.60
13241;BME280;6687;47.790;7.322;2023-07-31T09:20:34;98944.81;;;24.56;41.73
13241;BME280;6687;47.790;7.322;2023-07-31T09:23:08;98948.03;;;24.29;42.13
13241;BME280;6687;47.790;7.322;2023-07-31T09:25:38;98939.28;;;24.27;42.48
13241;BME280;6687;47.790;7.322;2023-07-31T09:28:06;98932.53;;;25.01;41.74
13241;BME280;6687;47.790;7.322;2023-07-31T09:30:45;98927.44;;;25.12;41.79
13241;BME280;6687;47.790;7.322;2023-07-31T09:33:13;98920.69;;;25.23;41.81
13241;BME280;6687;47.790;7.322;2023-07-31T09:35:40;98912.66;;;25.08;42.05
13241;BME280;6687;47.790;7.322;2023-07-31T09:38:08;98914.94;;;25.14;42.06
13241;BME280;6687;47.790;7.322;2023-07-31T09:40:38;98905.88;;;24.88;41.94
13241;BME280;6687;47.790;7.322;2023-07-31T09:43:06;98906.88;;;25.32;41.66
13241;BME280;6687;47.790;7.322;2023-07-31T09:45:34;98899.31;;;25.40;41.27
13241;BME280;6687;47.790;7.322;2023-07-31T09:48:02;98895.47;;;25.60;41.42
13241;BME280;6687;47.790;7.322;2023-07-31T09:50:29;98887.41;;;25.33;41.85
13241;BME280;6687;47.790;7.322;2023-07-31T09:52:56;98882.47;;;25.55;41.49
13241;BME280;6687;47.790;7.322;2023-07-31T09:55:23;98882.56;;;25.54;40.98
13241;BME280;6687;47.790;7.322;2023-07-31T09:57:52;98883.25;;;25.57;40.39
13241;BME280;6687;47.790;7.322;2023-07-31T10:00:21;98878.88;;;25.85;40.70
13241;BME280;6687;47.790;7.322;2023-07-31T10:02:50;98873.81;;;25.96;40.68
13241;BME280;6687;47.790;7.322;2023-07-31T10:05:19;98873.75;;;26.25;39.54
13241;BME280;6687;47.790;7.322;2023-07-31T10:07:51;98869.69;;;26.47;39.55
13241;BME280;6687;47.790;7.322;2023-07-31T10:10:20;98869.47;;;26.50;39.48
13241;BME280;6687;47.790;7.322;2023-07-31T10:12:48;98868.31;;;26.54;38.35
13241;BME280;6687;47.790;7.322;2023-07-31T10:15:16;98862.34;;;26.92;38.32
13241;BME280;6687;47.790;7.322;2023-07-31T10:17:43;98870.84;;;26.70;37.94
13241;BME280;6687;47.790;7.322;2023-07-31T10:20:11;98862.97;;;26.95;38.24
13241;BME280;6687;47.790;7.322;2023-07-31T10:22:38;98860.34;;;27.21;38.05
13241;BME280;6687;47.790;7.322;2023-07-31T10:25:07;98858.16;;;26.88;38.44
13241;BME280;6687;47.790;7.322;2023-07-31T10:27:35;98851.75;;;26.77;37.07
13241;BME280;6687;47.790;7.322;2023-07-31T10:30:04;98853.59;;;27.30;37.59
13241;BME280;6687;47.790;7.322;2023-07-31T10:32:33;98851.34;;;26.84;35.88
13241;BME280;6687;47.790;7.322;2023-07-31T10:35:01;98844.38;;;27.08;37.35
13241;BME280;6687;47.790;7.322;2023-07-31T10:37:35;98840.38;;;26.75;36.46
13241;BME280;6687;47.790;7.322;2023-07-31T10:40:04;98848.81;;;26.95;36.75
13241;BME280;6687;47.790;7.322;2023-07-31T10:42:32;98848.47;;;27.52;36.74
13241;BME280;6687;47.790;7.322;2023-07-31T10:45:02;98842.41;;;27.50;36.96
13241;BME280;6687;47.790;7.322;2023-07-31T10:47:29;98843.56;;;27.72;37.23
13241;BME280;6687;47.790;7.322;2023-07-31T10:50:18;98827.03;;;27.67;36.58
13241;BME280;6687;47.790;7.322;2023-07-31T10:52:49;98826.72;;;27.71;37.01
13241;BME280;6687;47.790;7.322;2023-07-31T10:55:31;98827.56;;;27.98;36.36
13241;BME280;6687;47.790;7.322;2023-07-31T10:58:06;98837.34;;;27.97;35.67
13241;BME280;6687;47.790;7.322;2023-07-31T11:00:36;98837.91;;;28.26;35.71
13241;BME280;6687;47.790;7.322;2023-07-31T11:03:05;98830.44;;;27.69;34.96
13241;BME280;6687;47.790;7.322;2023-07-31T11:05:50;98822.44;;;28.31;36.03
13241;BME280;6687;47.790;7.322;2023-07-31T11:08:21;98811.91;;;27.93;37.12
13241;BME280;6687;47.790;7.322;2023-07-31T11:10:50;98812.44;;;28.22;36.43
13241;BME280;6687;47.790;7.322;2023-07-31T11:13:18;98820.50;;;28.33;35.30
13241;BME280;6687;47.790;7.322;2023-07-31T11:15:45;98818.41;;;27.89;35.66
13241;BME280;6687;47.790;7.322;2023-07-31T11:18:12;98806.38;;;28.44;35.33
13241;BME280;6687;47.790;7.322;2023-07-31T11:20:41;98806.13;;;28.60;35.54
13241;BME280;6687;47.790;7.322;2023-07-31T11:23:11;98798.56;;;28.54;34.27
13241;BME280;6687;47.790;7.322;2023-07-31T11:25:39;98791.28;;;29.27;34.08
13241;BME280;6687;47.790;7.322;2023-07-31T11:28:09;98794.25;;;28.64;33.32
13241;BME280;6687;47.790;7.322;2023-07-31T11:30:36;98797.13;;;28.96;33.79
13241;BME280;6687;47.790;7.322;2023-07-31T11:33:03;98794.38;;;29.09;33.40
13241;BME280;6687;47.790;7.322;2023-07-31T11:35:32;98775.84;;;28.61;33.26
13241;BME280;6687;47.790;7.322;2023-07-31T11:37:59;98781.44;;;29.27;33.76
13241;BME280;6687;47.790;7.322;2023-07-31T11:40:28;98785.72;;;29.75;33.33
13241;BME280;6687;47.790;7.322;2023-07-31T11:42:58;98783.72;;;30.00;33.47
13241;BME280;6687;47.790;7.322;2023-07-31T11:45:30;98772.44;;;29.96;32.09
13241;BME280;6687;47.790;7.322;2023-07-31T11:47:58;98769.56;;;29.65;31.88
13241;BME280;6687;47.790;7.322;2023-07-31T11:50:24;98762.31;;;30.11;31.73
13241;BME280;6687;47.790;7.322;2023-07-31T11:52:53;98762.34;;;30.00;31.95
13241;BME280;6687;47.790;7.322;2023-07-31T11:55:21;98758.88;;;29.20;32.42
13241;BME280;6687;47.790;7.322;2023-07-31T11:57:50;98750.38;;;29.38;32.79
13241;BME280;6687;47.790;7.322;2023-07-31T12:00:17;98753.38;;;29.10;33.29
13241;BME280;6687;47.790;7.322;2023-07-31T12:02:45;98744.50;;;28.99;32.67
13241;BME280;6687;47.790;7.322;2023-07-31T12:05:12;98744.91;;;28.34;33.71
13241;BME280;6687;47.790;7.322;2023-07-31T12:07:46;98739.50;;;28.83;33.08
13241;BME280;6687;47.790;7.322;2023-07-31T12:10:23;98742.91;;;28.85;33.19
13241;BME280;6687;47.790;7.322;2023-07-31T12:13:00;98732.78;;;29.46;32.87
13241;BME280;6687;47.790;7.322;2023-07-31T12:15:35;98724.25;;;29.86;31.94
13241;BME280;6687;47.790;7.322;2023-07-31T12:18:04;98738.84;;;30.58;31.25
13241;BME280;6687;47.790;7.322;2023-07-31T12:20:32;98728.00;;;30.81;31.17
13241;BME280;6687;47.790;7.322;2023-07-31T12:22:59;98729.47;;;31.16;30.64
13241;BME280;6687;47.790;7.322;2023-07-31T12:25:30;98725.63;;;31.39;30.85
13241;BME280;6687;47.790;7.322;2023-07-31T12:28:03;98725.56;;;31.20;30.23
13241;BME280;6687;47.790;7.322;2023-07-31T12:30:32;98728.56;;;31.05;30.02
13241;BME280;6687;47.790;7.322;2023-07-31T12:33:03;98723.22;;;31.36;30.23
13241;BME280;6687;47.790;7.322;2023-07-31T12:35:35;98717.00;;;31.26;30.56
13241;BME280;6687;47.790;7.322;2023-07-31T12:38:03;98700.19;;;31.55;30.29
13241;BME280;6687;47.790;7.322;2023-07-31T12:40:29;98699.53;;;31.72;29.96
13241;BME280;6687;47.790;7.322;2023-07-31T12:42:58;98693.22;;;31.42;30.45
13241;BME280;6687;47.790;7.322;2023-07-31T12:45:24;98685.63;;;31.47;30.26
13241;BME280;6687;47.790;7.322;2023-07-31T12:47:51;98679.53;;;31.86;30.42
13241;BME280;6687;47.790;7.322;2023-07-31T12:50:18;98683.09;;;32.06;28.88
13241;BME280;6687;47.790;7.322;2023-07-31T12:52:45;98679.53;;;31.96;28.66
13241;BME280;6687;47.790;7.322;2023-07-31T12:55:12;98681.66;;;31.92;29.86
13241;BME280;6687;47.790;7.322;2023-07-31T12:57:39;98687.13;;;32.49;29.82
13241;BME280;6687;47.790;7.322;2023-07-31T13:00:09;98683.75;;;32.47;28.50
13241;BME280;6687;47.790;7.322;2023-07-31T13:02:36;98675.00;;;32.45;28.57
13241;BME280;6687;47.790;7.322;2023-07-31T13:05:03;98664.00;;;32.48;28.33
13241;BME280;6687;47.790;7.322;2023-07-31T13:07:30;98667.16;;;32.14;28.31
13241;BME280;6687;47.790;7.322;2023-07-31T13:09:57;98665.69;;;31.90;28.15
13241;BME280;6687;47.790;7.322;2023-07-31T13:12:24;98661.34;;;31.89;28.17
13241;BME280;6687;47.790;7.322;2023-07-31T13:14:50;98645.09;;;32.59;28.63
13241;BME280;6687;47.790;7.322;2023-07-31T13:17:19;98645.00;;;32.79;28.53
13241;BME280;6687;47.790;7.322;2023-07-31T13:19:45;98645.25;;;32.38;27.91
13241;BME280;6687;47.790;7.322;2023-07-31T13:22:12;98652.38;;;32.77;29.21
13241;BME280;6687;47.790;7.322;2023-07-31T13:24:39;98646.50;;;32.63;30.19
13241;BME280;6687;47.790;7.322;2023-07-31T13:27:05;98638.03;;;32.58;30.41
13241;BME280;6687;47.790;7.322;2023-07-31T13:29:32;98644.22;;;32.49;29.24
13241;BME280;6687;47.790;7.322;2023-07-31T13:31:59;98644.16;;;32.88;29.13
13241;BME280;6687;47.790;7.322;2023-07-31T13:34:27;98640.47;;;32.89;28.94
13241;BME280;6687;47.790;7.322;2023-07-31T13:36:54;98642.44;;;32.20;28.69
13241;BME280;6687;47.790;7.322;2023-07-31T13:39:21;98642.13;;;32.33;29.23
13241;BME280;6687;47.790;7.322;2023-07-31T13:41:48;98641.72;;;32.38;29.55
13241;BME280;6687;47.790;7.322;2023-07-31T13:44:15;98625.06;;;32.24;30.37
13241;BME280;6687;47.790;7.322;2023-07-31T13:46:41;98620.41;;;32.26;28.62
13241;BME280;6687;47.790;7.322;2023-07-31T13:49:08;98625.78;;;32.26;28.51
13241;BME280;6687;47.790;7.322;2023-07-31T13:51:36;98621.34;;;32.45;28.36
13241;BME280;6687;47.790;7.322;2023-07-31T13:54:04;98630.97;;;32.67;28.62
13241;BME280;6687;47.790;7.322;2023-07-31T13:56:33;98620.56;;;32.82;28.50
13241;BME280;6687;47.790;7.322;2023-07-31T13:58:59;98620.00;;;31.73;28.04
13241;BME280;6687;47.790;7.322;2023-07-31T14:01:27;98618.84;;;31.75;28.59
13241;BME280;6687;47.790;7.322;2023-07-31T14:03:53;98618.59;;;31.78;28.71
13241;BME280;6687;47.790;7.322;2023-07-31T14:06:20;98618.75;;;32.06;29.17
13241;BME280;6687;47.790;7.322;2023-07-31T14:08:48;98612.09;;;31.81;29.47
13241;BME280;6687;47.790;7.322;2023-07-31T14:11:15;98614.66;;;32.02;28.72
13241;BME280;6687;47.790;7.322;2023-07-31T14:13:42;98612.00;;;32.68;29.38
13241;BME280;6687;47.790;7.322;2023-07-31T14:16:08;98604.44;;;32.35;29.91
13241;BME280;6687;47.790;7.322;2023-07-31T14:18:35;98598.72;;;32.10;28.91
13241;BME280;6687;47.790;7.322;2023-07-31T14:21:02;98609.06;;;31.35;29.69
13241;BME280;6687;47.790;7.322;2023-07-31T14:23:29;98610.56;;;32.17;29.22
13241;BME280;6687;47.790;7.322;2023-07-31T14:25:57;98602.50;;;31.78;29.21
13241;BME280;6687;47.790;7.322;2023-07-31T14:28:23;98600.88;;;31.37;29.03
13241;BME280;6687;47.790;7.322;2023-07-31T14:30:50;98607.53;;;31.42;29.23
13241;BME280;6687;47.790;7.322;2023-07-31T14:33:17;98603.00;;;31.33;30.70
13241;BME280;6687;47.790;7.322;2023-07-31T14:35:44;98596.28;;;31.97;29.51
13241;BME280;6687;47.790;7.322;2023-07-31T14:38:10;98592.06;;;31.75;29.69
13241;BME280;6687;47.790;7.322;2023-07-31T14:40:37;98591.53;;;31.71;29.21
13241;BME280;6687;47.790;7.322;2023-07-31T14:43:05;98591.25;;;32.04;28.29
13241;BME280;6687;47.790;7.322;2023-07-31T14:45:32;98582.50;;;32.02;29.37
13241;BME280;6687;47.790;7.322;2023-07-31T14:47:59;98589.69;;;31.72;29.19
13241;BME280;6687;47.790;7.322;2023-07-31T14:50:25;98585.31;;;31.51;29.59
13241;BME280;6687;47.790;7.322;2023-07-31T14:52:52;98583.03;;;31.57;29.65
13241;BME280;6687;47.790;7.322;2023-07-31T14:55:19;98584.88;;;31.56;30.21
13241;BME280;6687;47.790;7.322;2023-07-31T14:57:46;98575.59;;;31.70;29.04
13241;BME280;6687;47.790;7.322;2023-07-31T15:00:14;98570.91;;;31.52;29.72
13241;BME280;6687;47.790;7.322;2023-07-31T15:02:41;98573.41;;;31.44;29.63
13241;BME280;6687;47.790;7.322;2023-07-31T15:05:08;98561.06;;;31.73;30.70
13241;BME280;6687;47.790;7.322;2023-07-31T15:07:35;98565.50;;;31.33;30.15
13241;BME280;6687;47.790;7.322;2023-07-31T15:10:02;98559.59;;;31.39;31.78
13241;BME280;6687;47.790;7.322;2023-07-31T15:12:29;98553.25;;;30.49;31.78
13241;BME280;6687;47.790;7.322;2023-07-31T15:14:56;98560.44;;;30.28;31.45
13241;BME280;6687;47.790;7.322;2023-07-31T15:17:24;98554.38;;;29.51;33.13
13241;BME280;6687;47.790;7.322;2023-07-31T15:19:51;98545.03;;;30.62;32.05
13241;BME280;6687;47.790;7.322;2023-07-31T15:22:17;98539.25;;;30.15;32.51
13241;BME280;6687;47.790;7.322;2023-07-31T15:24:44;98540.75;;;30.08;33.16
13241;BME280;6687;47.790;7.322;2023-07-31T15:27:11;98542.09;;;29.92;32.27
13241;BME280;6687;47.790;7.322;2023-07-31T15:29:37;98532.97;;;29.63;32.63
13241;BME280;6687;47.790;7.322;2023-07-31T15:32:05;98528.94;;;29.36;32.95
13241;BME280;6687;47.790;7.322;2023-07-31T15:34:33;98526.16;;;30.12;33.14
13241;BME280;6687;47.790;7.322;2023-07-31T15:37:00;98527.69;;;29.51;33.56
13241;BME280;6687;47.790;7.322;2023-07-31T15:39:27;98525.31;;;29.37;32.56
13241;BME280;6687;47.790;7.322;2023-07-31T15:41:53;98541.03;;;29.51;33.54
13241;BME280;6687;47.790;7.322;2023-07-31T15:44:20;98533.34;;;29.26;33.66
13241;BME280;6687;47.790;7.322;2023-07-31T15:46:47;98529.03;;;29.02;33.58
13241;BME280;6687;47.790;7.322;2023-07-31T15:49:14;98531.97;;;28.76;33.95
13241;BME280;6687;47.790;7.322;2023-07-31T15:51:42;98536.16;;;29.57;33.66
13241;BME280;6687;47.790;7.322;2023-07-31T15:54:09;98528.44;;;29.42;33.85
13241;BME280;6687;47.790;7.322;2023-07-31T15:56:35;98526.06;;;29.92;33.32
13241;BME280;6687;47.790;7.322;2023-07-31T15:59:02;98530.84;;;29.57;33.69
13241;BME280;6687;47.790;7.322;2023-07-31T16:01:29;98527.56;;;29.09;33.71
13241;BME280;6687;47.790;7.322;2023-07-31T16:03:56;98533.56;;;29.66;33.37
13241;BME280;6687;47.790;7.322;2023-07-31T16:06:23;98534.81;;;29.19;33.88
13241;BME280;6687;47.790;7.322;2023-07-31T16:08:51;98533.34;;;29.58;33.32
13241;BME280;6687;47.790;7.322;2023-07-31T16:11:18;98529.56;;;29.72;32.94
13241;BME280;6687;47.790;7.322;2023-07-31T16:13:44;98516.09;;;30.25;32.45
13241;BME280;6687;47.790;7.322;2023-07-31T16:16:11;98512.38;;;30.38;32.04
13241;BME280;6687;47.790;7.322;2023-07-31T16:18:38;98517.84;;;31.07;31.96
13241;BME280;6687;47.790;7.322;2023-07-31T16:21:05;98509.69;;;31.09;31.55
13241;BME280;6687;47.790;7.322;2023-07-31T16:23:31;98503.19;;;30.92;31.14
13241;BME280;6687;47.790;7.322;2023-07-31T16:25:59;98509.28;;;30.73;31.72
13241;BME280;6687;47.790;7.322;2023-07-31T16:28:26;98501.78;;;30.26;32.11
13241;BME280;6687;47.790;7.322;2023-07-31T16:30:53;98489.03;;;30.09;32.05
13241;BME280;6687;47.790;7.322;2023-07-31T16:33:19;98486.16;;;30.01;33.14
13241;BME280;6687;47.790;7.322;2023-07-31T16:35:46;98487.06;;;30.11;33.37
13241;BME280;6687;47.790;7.322;2023-07-31T16:38:13;98483.31;;;29.92;32.90
13241;BME280;6687;47.790;7.322;2023-07-31T16:40:39;98475.59;;;30.20;33.06
13241;BME280;6687;47.790;7.322;2023-07-31T16:43:08;98468.22;;;29.49;33.29
13241;BME280;6687;47.790;7.322;2023-07-31T16:45:34;98461.34;;;29.14;33.44
13241;BME280;6687;47.790;7.322;2023-07-31T16:48:01;98468.25;;;29.06;33.79
13241;BME280;6687;47.790;7.322;2023-07-31T16:50:28;98463.53;;;29.09;33.58
13241;BME280;6687;47.790;7.322;2023-07-31T16:52:55;98461.19;;;28.50;36.15
13241;BME280;6687;47.790;7.322;2023-07-31T16:55:21;98454.13;;;28.83;35.59
13241;BME280;6687;47.790;7.322;2023-07-31T16:57:48;98462.09;;;28.94;35.33
13241;BME280;6687;47.790;7.322;2023-07-31T17:00:16;98453.47;;;28.35;36.19
13241;BME280;6687;47.790;7.322;2023-07-31T17:02:43;98461.91;;;28.74;35.58
13241;BME280;6687;47.790;7.322;2023-07-31T17:05:10;98459.13;;;28.65;35.78
13241;BME280;6687;47.790;7.322;2023-07-31T17:07:37;98468.97;;;28.64;35.70
13241;BME280;6687;47.790;7.322;2023-07-31T17:10:04;98461.41;;;28.81;35.66
13241;BME280;6687;47.790;7.322;2023-07-31T17:12:31;98451.56;;;28.92;35.17
13241;BME280;6687;47.790;7.322;2023-07-31T17:14:58;98448.72;;;29.17;35.34
13241;BME280;6687;47.790;7.322;2023-07-31T17:17:26;98440.25;;;29.11;35.87
13241;BME280;6687;47.790;7.322;2023-07-31T17:19:53;98447.88;;;28.39;36.49
13241;BME280;6687;47.790;7.322;2023-07-31T17:22:20;98441.19;;;28.67;36.10
13241;BME280;6687;47.790;7.322;2023-07-31T17:24:47;98439.63;;;28.75;35.71
13241;BME280;6687;47.790;7.322;2023-07-31T17:27:13;98449.56;;;28.62;36.31
13241;BME280;6687;47.790;7.322;2023-07-31T17:29:40;98440.72;;;28.39;37.00
13241;BME280;6687;47.790;7.322;2023-07-31T17:32:07;98447.41;;;28.00;37.04
13241;BME280;6687;47.790;7.322;2023-07-31T17:34:36;98442.81;;;28.58;36.70
13241;BME280;6687;47.790;7.322;2023-07-31T17:37:03;98450.22;;;28.09;37.77
13241;BME280;6687;47.790;7.322;2023-07-31T17:39:30;98439.75;;;28.63;36.63
13241;BME280;6687;47.790;7.322;2023-07-31T17:41:57;98449.47;;;28.52;37.18
13241;BME280;6687;47.790;7.322;2023-07-31T17:44:24;98438.19;;;28.71;36.73
13241;BME280;6687;47.790;7.322;2023-07-31T17:46:50;98429.88;;;28.86;36.57
13241;BME280;6687;47.790;7.322;2023-07-31T17:49:17;98423.00;;;28.83;36.32
13241;BME280;6687;47.790;7.322;2023-07-31T17:51:45;98413.28;;;28.82;36.54
13241;BME280;6687;47.790;7.322;2023-07-31T17:54:12;98407.34;;;28.79;36.65
13241;BME280;6687;47.790;7.322;2023-07-31T17:56:39;98410.94;;;28.56;37.68
13241;BME280;6687;47.790;7.322;2023-07-31T17:59:06;98413.22;;;28.50;37.40
13241;BME280;6687;47.790;7.322;2023-07-31T18:01:32;98408.53;;;28.08;38.33
13241;BME280;6687;47.790;7.322;2023-07-31T18:03:59;98412.28;;;28.40;37.83
13241;BME280;6687;47.790;7.322;2023-07-31T18:06:26;98422.22;;;28.38;37.85
13241;BME280;6687;47.790;7.322;2023-07-31T18:08:54;98421.25;;;28.16;37.95
13241;BME280;6687;47.790;7.322;2023-07-31T18:11:21;98414.97;;;28.06;38.36
13241;BME280;6687;47.790;7.322;2023-07-31T18:13:51;98421.50;;;28.13;38.02
13241;BME280;6687;47.790;7.322;2023-07-31T18:16:19;98416.91;;;28.04;38.20
13241;BME280;6687;47.790;7.322;2023-07-31T18:18:46;98412.06;;;27.98;38.40
13241;BME280;6687;47.790;7.322;2023-07-31T18:21:12;98412.88;;;27.75;39.58
13241;BME280;6687;47.790;7.322;2023-07-31T18:23:39;98409.34;;;27.86;39.01
13241;BME280;6687;47.790;7.322;2023-07-31T18:26:07;98403.53;;;27.70;39.13
13241;BME280;6687;47.790;7.322;2023-07-31T18:28:34;98402.56;;;27.60;39.13
13241;BME280;6687;47.790;7.322;2023-07-31T18:31:01;98397.81;;;27.63;39.54
13241;BME280;6687;47.790;7.322;2023-07-31T18:33:28;98392.66;;;27.62;39.57
13241;BME280;6687;47.790;7.322;2023-07-31T18:35:55;98395.53;;;27.58;39.17